createdAt,value
2022-10-01T00:02:13.841Z,8.17
2022-10-01T00:04:43.910Z,6.47
2022-10-01T00:07:15.266Z,6.07
2022-10-01T00:09:44.157Z,7.60
2022-10-01T00:12:15.842Z,8.53
2022-10-01T00:14:45.073Z,5.80
2022-10-01T00:17:13.867Z,4.97
2022-10-01T00:19:43.980Z,5.10
2022-10-01T00:22:12.693Z,5.60
2022-10-01T00:24:41.478Z,8.67
2022-10-01T00:27:12.560Z,8.13
2022-10-01T00:29:44.822Z,8.00
2022-10-01T00:32:13.596Z,9.77
2022-10-01T00:34:42.372Z,7.70
2022-10-01T00:37:12.462Z,10.77
2022-10-01T00:39:41.439Z,9.27
2022-10-01T00:42:18.735Z,8.17
2022-10-01T00:44:47.937Z,12.13
2022-10-01T00:47:25.963Z,9.43
2022-10-01T00:49:59.544Z,8.50
2022-10-01T00:52:33.358Z,9.73
2022-10-01T00:55:07.565Z,7.90
2022-10-01T00:57:36.583Z,8.70
2022-10-01T01:00:09.032Z,10.37
2022-10-01T01:02:38.166Z,11.40
2022-10-01T01:05:08.864Z,12.43
2022-10-01T01:07:39.384Z,10.80
2022-10-01T01:10:09.473Z,10.27
2022-10-01T01:12:54.625Z,10.57
2022-10-01T01:15:32.754Z,9.30
2022-10-01T01:18:09.377Z,11.23
2022-10-01T01:20:52.067Z,10.07
2022-10-01T01:24:02.661Z,11.83
2022-10-01T01:26:43.131Z,11.63
2022-10-01T01:29:21.042Z,9.50
2022-10-01T01:31:50.356Z,12.93
2022-10-01T01:34:24.551Z,9.53
2022-10-01T01:36:58.590Z,10.40
2022-10-01T01:39:32.646Z,11.33
2022-10-01T01:42:06.374Z,11.77
2022-10-01T01:44:40.278Z,12.07
2022-10-01T01:47:11.542Z,13.67
2022-10-01T01:49:40.955Z,12.90
2022-10-01T01:52:13.486Z,12.40
2022-10-01T01:54:44.350Z,9.67
2022-10-01T01:57:14.213Z,11.23
2022-10-01T01:59:44.629Z,11.60
2022-10-01T02:02:15.270Z,10.77
2022-10-01T02:04:48.028Z,12.13
2022-10-01T02:07:38.606Z,11.17
2022-10-01T02:10:18.212Z,10.27
2022-10-01T02:13:03.952Z,11.17
2022-10-01T02:15:42.853Z,11.57
2022-10-01T02:18:16.589Z,11.83
2022-10-01T02:20:51.465Z,16.00
2022-10-01T02:23:23.410Z,11.70
2022-10-01T02:25:59.379Z,12.30
2022-10-01T02:28:29.644Z,15.43
2022-10-01T02:31:03.020Z,15.97
2022-10-01T02:33:35.617Z,12.07
2022-10-01T02:36:07.237Z,11.83
2022-10-01T02:38:38.796Z,14.33
2022-10-01T02:41:11.613Z,12.83
2022-10-01T02:43:44.280Z,13.63
2022-10-01T02:46:21.895Z,13.33
2022-10-01T02:48:51.822Z,13.50
2022-10-01T02:51:29.495Z,14.33
2022-10-01T02:54:02.981Z,14.23
2022-10-01T02:56:51.530Z,14.43
2022-10-01T02:59:23.429Z,12.67
2022-10-01T03:01:53.639Z,11.30
2022-10-01T03:04:22.460Z,14.17
2022-10-01T03:06:51.184Z,14.30
2022-10-01T03:09:19.886Z,15.63
2022-10-01T03:11:48.639Z,14.00
2022-10-01T03:14:17.346Z,14.47
2022-10-01T03:16:46.088Z,14.60
2022-10-01T03:19:16.207Z,16.00
2022-10-01T03:21:44.945Z,14.47
2022-10-01T03:24:13.847Z,16.10
2022-10-01T03:26:42.603Z,16.03
2022-10-01T03:29:11.225Z,14.30
2022-10-01T03:31:39.922Z,15.87
2022-10-01T03:34:08.710Z,15.70
2022-10-01T03:36:38.786Z,16.33
2022-10-01T03:39:07.477Z,14.77
2022-10-01T03:41:37.039Z,15.97
2022-10-01T03:44:05.760Z,13.37
2022-10-01T03:46:34.491Z,13.77
2022-10-01T03:49:03.234Z,21.07
2022-10-01T03:51:33.682Z,26.20
2022-10-01T03:54:04.611Z,19.67
2022-10-01T03:56:33.283Z,26.47
2022-10-01T03:59:02.059Z,28.93
2022-10-01T04:01:31.021Z,25.03
2022-10-01T04:04:00.071Z,24.30
2022-10-01T04:06:28.721Z,23.50
2022-10-01T04:08:57.501Z,24.13
2022-10-01T04:11:27.946Z,26.10
2022-10-01T04:13:57.850Z,25.10
2022-10-01T04:16:26.559Z,19.57
2022-10-01T04:18:55.854Z,21.67
2022-10-01T04:21:24.725Z,19.50
2022-10-01T04:23:53.293Z,20.80
2022-10-01T04:26:22.074Z,25.30
2022-10-01T04:28:52.070Z,30.40
2022-10-01T04:31:26.566Z,41.40
2022-10-01T04:33:56.970Z,60.27
2022-10-01T04:36:26.367Z,51.10
2022-10-01T04:39:00.725Z,33.53
2022-10-01T04:41:31.752Z,22.47
2022-10-01T04:44:02.307Z,19.47
2022-10-01T04:46:31.210Z,18.80
2022-10-01T04:48:59.831Z,22.90
2022-10-01T04:51:28.462Z,26.00
2022-10-01T04:53:57.097Z,25.17
2022-10-01T04:56:25.660Z,25.60
2022-10-01T04:58:54.510Z,23.50
2022-10-01T05:01:25.122Z,18.93
2022-10-01T05:03:53.804Z,25.17
2022-10-01T05:06:22.417Z,21.53
2022-10-01T05:08:52.253Z,20.07
2022-10-01T05:11:20.841Z,19.60
2022-10-01T05:13:49.458Z,18.37
2022-10-01T05:16:18.199Z,19.00
2022-10-01T05:18:48.397Z,18.67
2022-10-01T05:21:17.038Z,21.77
2022-10-01T05:23:45.596Z,21.73
2022-10-01T05:26:14.762Z,21.93
2022-10-01T05:28:44.367Z,18.80
2022-10-01T05:31:13.483Z,18.70
2022-10-01T05:33:42.344Z,19.60
2022-10-01T05:36:12.248Z,19.00
2022-10-01T05:38:42.384Z,21.43
2022-10-01T05:41:11.048Z,18.43
2022-10-01T05:43:39.621Z,22.00
2022-10-01T05:46:10.354Z,21.87
2022-10-01T05:48:39.038Z,20.67
2022-10-01T05:51:08.377Z,20.23
2022-10-01T05:53:38.973Z,20.23
2022-10-01T05:56:08.192Z,18.87
2022-10-01T05:58:36.978Z,20.37
2022-10-01T06:01:05.832Z,19.73
2022-10-01T06:03:34.722Z,21.73
2022-10-01T06:06:05.396Z,20.57
2022-10-01T06:08:35.320Z,23.67
2022-10-01T06:11:05.711Z,19.73
2022-10-01T06:13:36.480Z,23.10
2022-10-01T06:16:05.311Z,21.97
2022-10-01T06:18:33.965Z,22.27
2022-10-01T06:21:02.609Z,23.20
2022-10-01T06:23:31.299Z,25.67
2022-10-01T06:26:01.488Z,21.50
2022-10-01T06:28:31.559Z,22.43
2022-10-01T06:31:02.903Z,24.83
2022-10-01T06:33:31.823Z,26.80
2022-10-01T06:36:00.454Z,27.50
2022-10-01T06:38:29.114Z,28.20
2022-10-01T06:40:59.684Z,23.60
2022-10-01T06:43:29.923Z,22.47
2022-10-01T06:46:03.659Z,21.97
2022-10-01T06:48:32.573Z,22.00
2022-10-01T06:51:01.202Z,18.20
2022-10-01T06:53:29.305Z,17.73
2022-10-01T06:55:58.317Z,17.97
2022-10-01T06:58:27.278Z,18.70
2022-10-01T07:01:02.118Z,19.17
2022-10-01T07:03:32.153Z,18.20
2022-10-01T07:06:05.441Z,18.97
2022-10-01T07:08:34.069Z,19.03
2022-10-01T07:11:03.548Z,17.43
2022-10-01T07:13:32.258Z,18.73
2022-10-01T07:16:03.988Z,20.17
2022-10-01T07:18:32.672Z,17.97
2022-10-01T07:21:01.599Z,17.40
2022-10-01T07:23:30.267Z,16.43
2022-10-01T07:25:58.980Z,14.50
2022-10-01T07:28:28.210Z,17.00
2022-10-01T07:31:03.648Z,13.17
2022-10-01T07:33:32.305Z,15.47
2022-10-01T07:36:02.184Z,15.30
2022-10-01T07:38:30.849Z,16.17
2022-10-01T07:40:59.660Z,16.37
2022-10-01T07:43:28.358Z,17.20
2022-10-01T07:45:58.268Z,30.57
2022-10-01T07:48:29.057Z,22.90
2022-10-01T07:50:57.859Z,24.87
2022-10-01T07:53:27.595Z,21.17
2022-10-01T07:55:56.806Z,22.40
2022-10-01T07:58:27.021Z,21.10
2022-10-01T08:00:58.588Z,20.30
2022-10-01T08:03:29.152Z,17.07
2022-10-01T08:05:58.421Z,22.43
2022-10-01T08:08:27.170Z,20.97
2022-10-01T08:10:55.886Z,21.93
2022-10-01T08:13:25.724Z,23.23
2022-10-01T08:15:55.028Z,19.07
2022-10-01T08:18:24.712Z,21.73
2022-10-01T08:20:54.978Z,24.33
2022-10-01T08:23:23.625Z,23.93
2022-10-01T08:25:52.449Z,25.60
2022-10-01T08:28:21.345Z,24.63
2022-10-01T08:30:50.206Z,23.67
2022-10-01T08:33:19.146Z,27.47
2022-10-01T08:35:48.042Z,23.87
2022-10-01T08:38:19.693Z,26.77
2022-10-01T08:40:50.968Z,22.80
2022-10-01T08:43:32.759Z,25.30
2022-10-01T08:46:04.276Z,25.20
2022-10-01T08:48:50.702Z,23.27
2022-10-01T08:51:30.158Z,23.83
2022-10-01T08:54:05.624Z,27.90
2022-10-01T08:56:38.785Z,26.43
2022-10-01T08:59:24.096Z,27.50
2022-10-01T09:01:56.128Z,23.10
2022-10-01T09:04:25.488Z,34.23
2022-10-01T09:07:01.272Z,28.57
2022-10-01T09:09:40.378Z,28.03
2022-10-01T09:12:20.793Z,24.80
2022-10-01T09:15:05.566Z,27.73
2022-10-01T09:17:49.254Z,24.00
2022-10-01T09:20:24.866Z,26.87
2022-10-01T09:23:07.354Z,26.10
2022-10-01T09:25:39.936Z,31.00
2022-10-01T09:28:14.998Z,27.07
2022-10-01T09:30:48.813Z,25.50
2022-10-01T09:33:21.008Z,26.10
2022-10-01T09:35:52.752Z,25.57
2022-10-01T09:38:26.305Z,20.97
2022-10-01T09:40:57.662Z,23.53
2022-10-01T09:43:30.897Z,21.37
2022-10-01T09:45:59.826Z,20.43
2022-10-01T09:48:34.366Z,23.93
2022-10-01T09:51:09.462Z,24.40
2022-10-01T09:53:42.401Z,20.90
2022-10-01T09:56:20.249Z,19.53
2022-10-01T09:58:54.900Z,20.87
2022-10-01T10:01:30.207Z,19.30
2022-10-01T10:03:59.196Z,19.80
2022-10-01T10:06:30.103Z,17.90
2022-10-01T10:09:01.196Z,17.87
2022-10-01T10:11:33.896Z,15.97
2022-10-01T10:14:04.546Z,17.87
2022-10-01T10:16:36.439Z,14.57
2022-10-01T10:19:10.221Z,13.17
2022-10-01T10:21:39.200Z,13.10
2022-10-01T10:24:23.135Z,13.30
2022-10-01T10:26:56.491Z,11.17
2022-10-01T10:29:30.500Z,12.80
2022-10-01T10:32:00.604Z,11.87
2022-10-01T10:34:34.066Z,11.63
2022-10-01T10:37:06.879Z,10.03
2022-10-01T10:39:38.212Z,10.33
2022-10-01T10:42:09.751Z,11.37
2022-10-01T10:44:40.435Z,8.90
2022-10-01T10:47:13.981Z,6.50
2022-10-01T10:49:47.413Z,7.90
2022-10-01T10:52:23.666Z,10.37
2022-10-01T10:54:53.364Z,9.73
2022-10-01T10:57:28.090Z,6.97
2022-10-01T10:59:58.222Z,6.33
2022-10-01T11:02:30.056Z,6.93
2022-10-01T11:05:01.211Z,7.73
2022-10-01T11:07:30.953Z,8.03
2022-10-01T11:10:11.856Z,7.87
2022-10-01T11:12:59.099Z,5.30
2022-10-01T11:15:43.235Z,5.80
2022-10-01T11:18:30.179Z,5.17
2022-10-01T11:21:13.952Z,7.07
2022-10-01T11:24:03.972Z,5.20
2022-10-01T11:26:41.581Z,5.23
2022-10-01T11:29:25.068Z,6.73
2022-10-01T11:32:02.884Z,6.60
2022-10-01T11:34:57.377Z,5.77
2022-10-01T11:37:48.357Z,4.30
2022-10-01T11:40:25.011Z,4.60
2022-10-01T11:42:58.340Z,3.77
2022-10-01T11:45:31.995Z,5.33
2022-10-01T11:48:05.162Z,3.97
2022-10-01T11:50:39.446Z,4.43
2022-10-01T11:53:15.956Z,4.93
2022-10-01T11:56:09.770Z,5.07
2022-10-01T11:58:51.628Z,4.17
2022-10-01T12:01:28.694Z,3.60
2022-10-01T12:04:04.371Z,3.03
2022-10-01T12:06:37.008Z,4.47
2022-10-01T12:09:14.217Z,3.93
2022-10-01T12:11:47.305Z,3.07
2022-10-01T12:14:20.526Z,3.50
2022-10-01T12:16:55.860Z,3.10
2022-10-01T12:19:27.592Z,4.30
2022-10-01T12:22:00.606Z,2.50
2022-10-01T12:24:32.515Z,2.27
2022-10-01T12:27:13.029Z,1.90
2022-10-01T12:29:49.586Z,1.70
2022-10-01T12:32:27.326Z,2.07
2022-10-01T12:35:06.954Z,3.20
2022-10-01T12:37:59.866Z,4.43
2022-10-01T12:40:33.998Z,2.30
2022-10-01T12:43:29.784Z,2.00
2022-10-01T12:46:09.379Z,2.67
2022-10-01T12:48:47.571Z,1.70
2022-10-01T12:51:38.990Z,2.10
2022-10-01T12:54:24.819Z,2.27
2022-10-01T12:56:58.502Z,2.83
2022-10-01T12:59:44.402Z,4.93
2022-10-01T13:02:31.395Z,2.53
2022-10-01T13:05:14.148Z,2.13
2022-10-01T13:07:59.214Z,2.30
2022-10-01T13:10:45.157Z,1.83
2022-10-01T13:13:18.264Z,3.07
2022-10-01T13:15:49.921Z,3.07
2022-10-01T13:18:31.500Z,2.43
2022-10-01T13:21:08.805Z,1.90
2022-10-01T13:23:44.931Z,2.10
2022-10-01T13:26:18.277Z,3.43
2022-10-01T13:29:12.318Z,1.50
2022-10-01T13:31:56.800Z,1.63
2022-10-01T13:34:34.779Z,1.93
2022-10-01T13:37:17.057Z,2.10
2022-10-01T13:39:46.938Z,4.37
2022-10-01T13:42:24.197Z,2.03
2022-10-01T13:44:55.664Z,2.53
2022-10-01T13:47:25.114Z,1.87
2022-10-01T13:49:59.730Z,1.10
2022-10-01T13:52:31.558Z,3.53
2022-10-01T13:55:02.150Z,2.07
2022-10-01T13:57:34.135Z,2.60
2022-10-01T14:00:20.617Z,1.63
2022-10-01T14:03:05.788Z,3.03
2022-10-01T14:05:39.190Z,2.53
2022-10-01T14:08:16.880Z,4.73
2022-10-01T14:11:07.515Z,1.77
2022-10-01T14:14:06.588Z,2.57
2022-10-01T14:16:38.491Z,3.00
2022-10-01T14:19:07.364Z,1.40
2022-10-01T14:21:53.008Z,2.73
2022-10-01T14:24:33.817Z,4.27
2022-10-01T14:27:10.478Z,3.57
2022-10-01T14:29:53.332Z,2.10
2022-10-01T14:32:33.374Z,2.63
2022-10-01T14:35:24.117Z,1.33
2022-10-01T14:37:57.924Z,2.43
2022-10-01T14:40:37.555Z,1.23
2022-10-01T14:43:18.593Z,1.47
2022-10-01T14:45:52.710Z,3.20
2022-10-01T14:48:22.905Z,3.17
2022-10-01T14:50:54.402Z,4.00
2022-10-01T14:53:25.509Z,2.27
2022-10-01T14:55:59.375Z,4.57
2022-10-01T14:58:32.218Z,3.07
2022-10-01T15:01:01.824Z,1.83
2022-10-01T15:03:38.108Z,1.40
2022-10-01T15:06:13.418Z,2.70
2022-10-01T15:08:43.402Z,3.57
2022-10-01T15:11:16.791Z,1.93
2022-10-01T15:13:47.286Z,3.23
2022-10-01T15:16:18.370Z,1.70
2022-10-01T15:18:51.131Z,4.33
2022-10-01T15:21:23.895Z,3.73
2022-10-01T15:23:52.990Z,4.23
2022-10-01T15:26:27.362Z,2.50
2022-10-01T15:29:04.057Z,2.93
2022-10-01T15:31:34.020Z,7.37
2022-10-01T15:34:04.771Z,5.17
2022-10-01T15:36:35.330Z,3.53
2022-10-01T15:39:05.473Z,3.30
2022-10-01T15:41:35.675Z,2.03
2022-10-01T15:44:06.316Z,2.83
2022-10-01T15:46:36.385Z,2.83
2022-10-01T15:49:19.395Z,4.17
2022-10-01T15:52:07.412Z,3.30
2022-10-01T15:54:37.149Z,6.05
2022-10-01T15:57:08.623Z,3.08
2022-10-01T15:59:40.561Z,4.37
2022-10-01T16:02:16.089Z,5.45
2022-10-01T16:04:44.928Z,3.23
2022-10-01T16:07:21.148Z,2.43
2022-10-01T16:09:54.102Z,3.67
2022-10-01T16:12:27.118Z,3.70
2022-10-01T16:14:59.872Z,1.73
2022-10-01T16:17:33.599Z,4.73
2022-10-01T16:20:18.305Z,5.33
2022-10-01T16:22:47.032Z,3.20
2022-10-01T16:25:31.274Z,3.63
2022-10-01T16:28:03.913Z,3.07
2022-10-01T16:30:34.343Z,2.33
2022-10-01T16:33:06.266Z,6.20
2022-10-01T16:35:37.864Z,4.47
2022-10-01T16:38:08.329Z,3.43
2022-10-01T16:40:40.428Z,2.43
2022-10-01T16:43:17.356Z,3.53
2022-10-01T16:45:46.118Z,4.93
2022-10-01T16:48:16.658Z,2.60
2022-10-01T16:50:46.642Z,6.53
2022-10-01T16:53:18.248Z,4.72
2022-10-01T16:55:47.986Z,3.92
2022-10-01T16:58:18.368Z,2.10
2022-10-01T17:00:47.106Z,3.90
2022-10-01T17:03:18.429Z,4.00
2022-10-01T17:05:47.160Z,3.63
2022-10-01T17:08:16.467Z,3.57
2022-10-01T17:10:47.662Z,3.13
2022-10-01T17:13:17.685Z,5.93
2022-10-01T17:15:48.414Z,2.28
2022-10-01T17:18:17.083Z,4.60
2022-10-01T17:20:45.969Z,5.47
2022-10-01T17:23:16.895Z,6.03
2022-10-01T17:25:46.173Z,4.47
2022-10-01T17:28:20.026Z,5.32
2022-10-01T17:30:50.150Z,3.75
2022-10-01T17:33:20.290Z,5.30
2022-10-01T17:35:51.958Z,7.60
2022-10-01T17:38:21.072Z,3.00
2022-10-01T17:40:54.214Z,4.00
2022-10-01T17:43:26.800Z,2.50
2022-10-01T17:45:59.470Z,5.18
2022-10-01T17:48:30.001Z,2.70
2022-10-01T17:51:03.983Z,3.27
2022-10-01T17:53:38.230Z,3.37
2022-10-01T17:56:11.942Z,2.42
2022-10-01T17:58:45.397Z,3.43
2022-10-01T18:01:16.769Z,4.25
2022-10-01T18:03:45.491Z,5.20
2022-10-01T18:06:15.312Z,2.90
2022-10-01T18:08:55.003Z,3.75
2022-10-01T18:11:25.751Z,3.83
2022-10-01T18:13:55.778Z,5.90
2022-10-01T18:16:25.558Z,4.43
2022-10-01T18:19:52.511Z,5.37
2022-10-01T18:21:46.885Z,4.73
2022-10-01T18:24:16.480Z,4.33
2022-10-01T18:26:45.728Z,6.30
2022-10-01T18:29:19.353Z,3.03
2022-10-01T18:31:52.641Z,6.70
2022-10-01T18:34:27.700Z,4.43
2022-10-01T18:36:59.970Z,3.27
2022-10-01T18:39:34.634Z,2.70
2022-10-01T18:42:13.551Z,4.13
2022-10-01T18:44:43.616Z,5.10
2022-10-01T18:47:24.296Z,3.07
2022-10-01T18:50:12.783Z,2.20
2022-10-01T18:52:53.526Z,2.50
2022-10-01T18:55:35.342Z,2.97
2022-10-01T18:58:23.420Z,2.63
2022-10-01T19:01:01.718Z,5.17
2022-10-01T19:04:03.212Z,2.13
2022-10-01T19:06:59.111Z,4.50
2022-10-01T19:09:37.621Z,4.40
2022-10-01T19:12:24.284Z,4.20
2022-10-01T19:15:01.562Z,2.73
2022-10-01T19:17:59.307Z,4.17
2022-10-01T19:20:37.799Z,3.97
2022-10-01T19:23:19.556Z,7.07
2022-10-01T19:25:51.526Z,3.53
2022-10-01T19:28:35.599Z,2.97
2022-10-01T19:31:13.526Z,4.30
2022-10-01T19:33:48.205Z,4.10
2022-10-01T19:36:27.753Z,3.13
2022-10-01T19:39:03.944Z,5.07
2022-10-01T19:41:38.806Z,4.20
2022-10-01T19:44:14.083Z,3.70
2022-10-01T19:46:45.782Z,3.65
2022-10-01T19:49:21.402Z,2.97
2022-10-01T19:51:57.945Z,3.10
2022-10-01T19:54:31.998Z,3.07
2022-10-01T19:57:13.354Z,2.60
2022-10-01T19:59:42.348Z,3.03
2022-10-01T20:02:16.330Z,3.80
2022-10-01T20:04:52.254Z,4.23
2022-10-01T20:07:27.250Z,2.30
2022-10-01T20:10:05.283Z,6.00
2022-10-01T20:12:41.306Z,2.90
2022-10-01T20:15:23.705Z,6.53
2022-10-01T20:18:13.263Z,4.97
2022-10-01T20:20:52.283Z,5.72
2022-10-01T20:23:44.131Z,5.65
2022-10-01T20:26:20.736Z,5.15
2022-10-01T20:29:11.429Z,5.65
2022-10-01T20:31:48.133Z,6.27
2022-10-01T20:34:27.494Z,3.00
2022-10-01T20:37:11.987Z,6.75
2022-10-01T20:39:45.053Z,4.57
2022-10-01T20:42:20.686Z,3.17
2022-10-01T20:44:51.123Z,2.67
2022-10-01T20:47:26.814Z,2.97
2022-10-01T20:50:09.185Z,5.90
2022-10-01T20:52:46.152Z,5.72
2022-10-01T20:55:19.076Z,5.70
2022-10-01T20:57:51.697Z,5.67
2022-10-01T21:00:23.477Z,4.40
2022-10-01T21:02:56.843Z,5.78
2022-10-01T21:05:30.230Z,7.55
2022-10-01T21:08:04.469Z,4.63
2022-10-01T21:10:38.788Z,6.32
2022-10-01T21:13:12.492Z,4.67
2022-10-01T21:15:54.786Z,4.95
2022-10-01T21:18:35.051Z,3.45
2022-10-01T21:21:15.609Z,4.15
2022-10-01T21:23:57.703Z,4.32
2022-10-01T21:26:38.620Z,6.20
2022-10-01T21:29:22.068Z,5.57
2022-10-01T21:32:00.261Z,6.70
2022-10-01T21:34:38.606Z,4.93
2022-10-01T21:37:15.735Z,3.53
2022-10-01T21:39:58.471Z,5.40
2022-10-01T21:42:36.553Z,5.90
2022-10-01T21:45:20.762Z,6.75
2022-10-01T21:48:06.645Z,3.80
2022-10-01T21:50:49.422Z,5.13
2022-10-01T21:53:41.145Z,4.77
2022-10-01T21:56:22.564Z,4.40
2022-10-01T21:59:07.024Z,4.67
2022-10-01T22:01:50.567Z,5.13
2022-10-01T22:04:23.360Z,4.57
2022-10-01T22:06:58.282Z,3.60
2022-10-01T22:09:34.789Z,5.47
2022-10-01T22:12:07.092Z,5.57
2022-10-01T22:14:35.848Z,4.95
2022-10-01T22:17:12.628Z,5.67
2022-10-01T22:19:46.874Z,7.88
2022-10-01T22:22:21.430Z,4.47
2022-10-01T22:24:52.455Z,6.18
2022-10-01T22:27:25.336Z,6.22
2022-10-01T22:29:59.413Z,6.00
2022-10-01T22:32:32.581Z,4.33
2022-10-01T22:35:07.891Z,10.27
2022-10-01T22:37:41.363Z,7.47
2022-10-01T22:40:16.851Z,8.95
2022-10-01T22:42:55.153Z,9.73
2022-10-01T22:45:36.401Z,7.50
2022-10-01T22:48:16.988Z,8.53
2022-10-01T22:50:57.093Z,9.80
2022-10-01T22:53:43.023Z,6.80
2022-10-01T22:56:16.722Z,11.33
2022-10-01T22:59:04.513Z,7.07
2022-10-01T23:01:42.546Z,9.27
2022-10-01T23:04:32.014Z,9.37
2022-10-01T23:07:12.768Z,5.83
2022-10-01T23:09:48.157Z,6.90
2022-10-01T23:12:22.985Z,9.93
2022-10-01T23:15:02.993Z,9.30
2022-10-01T23:17:37.302Z,8.97
2022-10-01T23:20:17.464Z,9.33
2022-10-01T23:23:01.638Z,8.60
2022-10-01T23:25:43.942Z,10.97
2022-10-01T23:28:23.159Z,11.03
2022-10-01T23:31:06.308Z,7.93
2022-10-01T23:33:52.157Z,12.27
2022-10-01T23:36:33.544Z,12.23
2022-10-01T23:39:33.543Z,9.43
2022-10-01T23:42:10.103Z,10.03
2022-10-01T23:44:42.684Z,11.93
2022-10-01T23:47:18.150Z,12.53
2022-10-01T23:49:54.105Z,14.73
2022-10-01T23:52:29.201Z,8.70
2022-10-01T23:55:24.274Z,9.13
2022-10-01T23:58:00.941Z,8.37
